Time,TemperatureF,DewpointF,PressureIn,WindDirection,WindDirectionDegrees,WindSpeedMPH,WindSpeedGustMPH,Humidity,HourlyPrecipIn,Conditions,Clouds,dailyrainin,SoftwareType,DateUTC
2013-05-06 00:00:00,48.2,38.5,29.98,East,90,0.0,-999.0,69,-99.99,,,0.00,Acu-Link.com,2013-05-06 04:00:00,
2013-05-06 00:15:00,47.8,37.8,29.98,NNE,22,2.2,-999.0,68,-99.99,,,0.00,Acu-Link.com,2013-05-06 04:15:00,
2013-05-06 00:30:00,47.7,38.0,29.99,ESE,112,0.0,-999.0,69,-99.99,,,0.00,Acu-Link.com,2013-05-06 04:30:00,
2013-05-06 00:45:00,48.4,38.7,30.00,ESE,112,2.7,-999.0,69,-99.99,,,0.00,Acu-Link.com,2013-05-06 04:45:00,
2013-05-06 01:00:00,48.2,38.5,30.00,West,270,0.0,-999.0,69,-99.99,,,0.00,Acu-Link.com,2013-05-06 05:00:00,
2013-05-06 01:15:00,47.5,38.2,30.00,ENE,67,2.2,-999.0,70,-99.99,,,0.00,Acu-Link.com,2013-05-06 05:15:00,
2013-05-06 01:30:00,46.6,37.7,30.00,South,180,0.0,-999.0,71,-99.99,,,0.00,Acu-Link.com,2013-05-06 05:30:00,
2013-05-06 01:45:00,45.3,36.5,29.99,West,270,1.1,-999.0,71,-99.99,,,0.00,Acu-Link.com,2013-05-06 05:45:00,
2013-05-06 02:00:00,44.4,36.3,29.99,NNE,22,1.7,-999.0,73,-99.99,,,0.00,Acu-Link.com,2013-05-06 06:00:00,
2013-05-06 02:16:00,43.9,36.2,29.99,WNW,292,0.0,-999.0,74,-99.99,,,0.00,Acu-Link.com,2013-05-06 06:16:00,
2013-05-06 02:31:00,43.3,35.9,30.00,NE,45,0.0,-999.0,75,-99.99,,,0.00,Acu-Link.com,2013-05-06 06:31:00,
2013-05-06 02:46:00,42.8,36.4,30.00,East,90,0.0,-999.0,78,-99.99,,,0.00,Acu-Link.com,2013-05-06 06:46:00,
2013-05-06 03:01:00,42.3,36.6,30.00,East,90,0.0,-999.0,80,-99.99,,,0.00,Acu-Link.com,2013-05-06 07:01:00,
2013-05-06 03:16:00,41.7,36.6,30.00,NE,45,0.0,-999.0,82,-99.99,,,0.00,Acu-Link.com,2013-05-06 07:16:00,
2013-05-06 03:31:00,41.5,36.7,29.99,NNE,22,0.0,-999.0,83,-99.99,,,0.00,Acu-Link.com,2013-05-06 07:31:00,
2013-05-06 03:46:00,41.0,37.4,29.99,NNE,22,0.0,-999.0,87,-99.99,,,0.00,Acu-Link.com,2013-05-06 07:46:00,
2013-05-06 04:01:00,40.6,37.0,30.00,NE,45,0.0,-999.0,87,-99.99,,,0.00,Acu-Link.com,2013-05-06 08:01:00,
2013-05-06 04:17:00,40.5,36.9,30.00,NNE,22,0.0,-999.0,87,-99.99,,,0.00,Acu-Link.com,2013-05-06 08:17:00,
2013-05-06 04:32:00,40.1,36.5,29.99,NNE,22,0.0,-999.0,87,-99.99,,,0.00,Acu-Link.com,2013-05-06 08:32:00,
2013-05-06 04:47:00,39.7,36.7,30.00,ENE,67,1.7,-999.0,89,-99.99,,,0.00,Acu-Link.com,2013-05-06 08:47:00,
2013-05-06 05:02:00,39.4,36.1,30.00,NE,45,0.0,-999.0,88,-99.99,,,0.00,Acu-Link.com,2013-05-06 09:02:00,
2013-05-06 05:17:00,38.8,35.8,30.01,East,90,0.0,-999.0,89,-99.99,,,0.00,Acu-Link.com,2013-05-06 09:17:00,
2013-05-06 05:32:00,38.5,35.8,30.01,NE,45,0.0,-999.0,90,-99.99,,,0.00,Acu-Link.com,2013-05-06 09:32:00,
2013-05-06 05:47:00,38.5,35.8,30.02,NE,45,0.0,-999.0,90,-99.99,,,0.00,Acu-Link.com,2013-05-06 09:47:00,
2013-05-06 06:03:00,38.1,35.4,30.02,ESE,112,0.0,-999.0,90,-99.99,,,0.00,Acu-Link.com,2013-05-06 10:03:00,
2013-05-06 06:18:00,37.9,35.5,30.03,NE,45,0.0,-999.0,91,-99.99,,,0.00,Acu-Link.com,2013-05-06 10:18:00,
2013-05-06 06:33:00,37.9,35.5,30.03,ESE,112,0.0,-999.0,91,-99.99,,,0.00,Acu-Link.com,2013-05-06 10:33:00,
2013-05-06 06:48:00,38.1,35.7,30.03,NE,45,0.0,-999.0,91,-99.99,,,0.00,Acu-Link.com,2013-05-06 10:48:00,
2013-05-06 07:03:00,38.3,35.9,30.04,NE,45,0.0,-999.0,91,-99.99,,,0.00,Acu-Link.com,2013-05-06 11:03:00,
2013-05-06 07:18:00,39.2,36.8,30.04,ENE,67,0.0,-999.0,91,-99.99,,,0.00,Acu-Link.com,2013-05-06 11:18:00,
2013-05-06 07:33:00,42.8,39.8,30.04,West,270,0.0,-999.0,89,-99.99,,,0.00,Acu-Link.com,2013-05-06 11:33:00,
2013-05-06 07:48:00,43.3,39.1,30.04,WNW,292,0.0,-999.0,85,-99.99,,,0.00,Acu-Link.com,2013-05-06 11:48:00,
2013-05-06 08:03:00,44.1,39.0,30.04,SW,225,0.0,-999.0,82,-99.99,,,0.00,Acu-Link.com,2013-05-06 12:03:00,
2013-05-06 08:19:00,44.8,39.0,30.02,WSW,247,2.7,-999.0,80,-99.99,,,0.00,Acu-Link.com,2013-05-06 12:19:00,
2013-05-06 08:34:00,47.1,39.9,29.98,WSW,247,0.0,-999.0,76,-99.99,,,0.00,Acu-Link.com,2013-05-06 12:34:00,
2013-05-06 08:49:00,52.0,40.6,29.96,SSE,157,2.7,-999.0,65,-99.99,,,0.00,Acu-Link.com,2013-05-06 12:49:00,
2013-05-06 09:04:00,52.9,39.8,30.01,West,270,1.7,-999.0,61,-99.99,,,0.00,Acu-Link.com,2013-05-06 13:04:00,
2013-05-06 09:19:00,53.6,39.2,30.02,South,180,2.7,-999.0,58,-99.99,,,0.00,Acu-Link.com,2013-05-06 13:19:00,
2013-05-06 09:34:00,54.1,38.8,30.02,South,180,2.7,-999.0,56,-99.99,,,0.00,Acu-Link.com,2013-05-06 13:34:00,
2013-05-06 09:49:00,57.2,40.7,30.02,SSE,157,2.7,-999.0,54,-99.99,,,0.00,Acu-Link.com,2013-05-06 13:49:00,
2013-05-06 10:04:00,57.6,40.6,30.02,South,180,3.2,-999.0,53,-99.99,,,0.00,Acu-Link.com,2013-05-06 14:04:00,
2013-05-06 10:19:00,59.4,40.8,30.02,South,180,2.2,-999.0,50,-99.99,,,0.00,Acu-Link.com,2013-05-06 14:19:00,
2013-05-06 10:35:00,60.1,42.4,30.02,NNE,22,2.7,-999.0,52,-99.99,,,0.00,Acu-Link.com,2013-05-06 14:35:00,
2013-05-06 10:50:00,61.3,42.5,30.02,South,180,4.2,-999.0,50,-99.99,,,0.00,Acu-Link.com,2013-05-06 14:50:00,
2013-05-06 11:05:00,61.7,41.8,30.02,East,90,0.0,-999.0,48,-99.99,,,0.00,Acu-Link.com,2013-05-06 15:05:00,
2013-05-06 11:20:00,62.4,42.4,30.01,East,90,2.7,-999.0,48,-99.99,,,0.00,Acu-Link.com,2013-05-06 15:20:00,
2013-05-06 11:35:00,63.3,42.2,30.01,East,90,2.2,-999.0,46,-99.99,,,0.00,Acu-Link.com,2013-05-06 15:35:00,
2013-05-06 11:50:00,64.6,42.8,30.00,ESE,112,2.7,-999.0,45,-99.99,,,0.00,Acu-Link.com,2013-05-06 15:50:00,
2013-05-06 12:05:00,65.3,44.0,30.00,NE,45,4.2,-999.0,46,-99.99,,,0.00,Acu-Link.com,2013-05-06 16:05:00,
2013-05-06 12:20:00,65.5,44.2,29.98,ENE,67,2.7,-999.0,46,-99.99,,,0.00,Acu-Link.com,2013-05-06 16:20:00,
2013-05-06 12:35:00,67.1,45.0,29.98,SSE,157,2.7,-999.0,45,-99.99,,,0.00,Acu-Link.com,2013-05-06 16:35:00,
2013-05-06 12:51:00,67.6,44.9,29.97,South,180,4.2,-999.0,44,-99.99,,,0.00,Acu-Link.com,2013-05-06 16:51:00,
2013-05-06 13:06:00,67.8,46.3,29.96,ESE,112,2.7,-999.0,46,-99.99,,,0.00,Acu-Link.com,2013-05-06 17:06:00,
2013-05-06 13:21:00,69.1,46.9,29.95,ESE,112,3.7,-999.0,45,-99.99,,,0.00,Acu-Link.com,2013-05-06 17:21:00,
2013-05-06 13:36:00,69.4,48.3,29.94,ENE,67,2.7,-999.0,47,-99.99,,,0.00,Acu-Link.com,2013-05-06 17:36:00,
2013-05-06 13:51:00,70.7,48.3,29.94,SSE,157,2.7,-999.0,45,-99.99,,,0.00,Acu-Link.com,2013-05-06 17:51:00,
2013-05-06 14:06:00,70.2,48.4,29.93,SSE,157,3.7,-999.0,46,-99.99,,,0.00,Acu-Link.com,2013-05-06 18:06:00,
2013-05-06 14:21:00,72.7,50.1,29.92,SSE,157,2.7,-999.0,45,-99.99,,,0.00,Acu-Link.com,2013-05-06 18:21:00,
2013-05-06 14:36:00,71.8,49.9,29.91,SE,135,2.7,-999.0,46,-99.99,,,0.00,Acu-Link.com,2013-05-06 18:36:00,
2013-05-06 14:51:00,73.0,50.4,29.91,South,180,4.7,-999.0,45,-99.99,,,0.00,Acu-Link.com,2013-05-06 18:51:00,
2013-05-06 15:06:00,73.6,50.3,29.90,ESE,112,4.7,-999.0,44,-99.99,,,0.00,Acu-Link.com,2013-05-06 19:06:00,
2013-05-06 15:22:00,74.7,50.1,29.89,East,90,3.2,-999.0,42,-99.99,,,0.00,Acu-Link.com,2013-05-06 19:22:00,
2013-05-06 15:37:00,73.6,50.3,29.88,South,180,2.7,-999.0,44,-99.99,,,0.00,Acu-Link.com,2013-05-06 19:37:00,
2013-05-06 15:52:00,76.3,51.5,29.87,South,180,3.7,-999.0,42,-99.99,,,0.00,Acu-Link.com,2013-05-06 19:52:00,
2013-05-06 16:07:00,72.7,50.7,29.87,SE,135,3.2,-999.0,46,-99.99,,,0.00,Acu-Link.com,2013-05-06 20:07:00,
2013-05-06 16:22:00,73.8,49.9,29.87,SE,135,2.7,-999.0,43,-99.99,,,0.00,Acu-Link.com,2013-05-06 20:22:00,
2013-05-06 16:37:00,73.9,51.2,29.86,ESE,112,3.7,-999.0,45,-99.99,,,0.00,Acu-Link.com,2013-05-06 20:37:00,
2013-05-06 16:52:00,74.3,50.3,29.86,SSE,157,3.7,-999.0,43,-99.99,,,0.00,Acu-Link.com,2013-05-06 20:52:00,
2013-05-06 17:07:00,74.7,50.7,29.86,South,180,3.2,-999.0,43,-99.99,,,0.00,Acu-Link.com,2013-05-06 21:07:00,
2013-05-06 17:22:00,74.5,51.7,29.86,SE,135,3.2,-999.0,45,-99.99,,,0.00,Acu-Link.com,2013-05-06 21:22:00,
2013-05-06 17:38:00,73.9,52.4,29.86,South,180,7.8,-999.0,47,-99.99,,,0.00,Acu-Link.com,2013-05-06 21:38:00,
2013-05-06 17:53:00,73.0,51.0,29.86,SSE,157,2.2,-999.0,46,-99.99,,,0.00,Acu-Link.com,2013-05-06 21:53:00,
2013-05-06 18:08:00,71.1,51.0,29.86,ESE,112,4.7,-999.0,49,-99.99,,,0.00,Acu-Link.com,2013-05-06 22:08:00,
2013-05-06 18:23:00,73.0,50.4,29.86,East,90,3.2,-999.0,45,-99.99,,,0.00,Acu-Link.com,2013-05-06 22:23:00,
2013-05-06 18:38:00,74.8,51.4,29.86,West,270,2.7,-999.0,44,-99.99,,,0.00,Acu-Link.com,2013-05-06 22:38:00,
2013-05-06 18:53:00,71.8,51.6,29.87,SE,135,3.7,-999.0,49,-99.99,,,0.00,Acu-Link.com,2013-05-06 22:53:00,
2013-05-06 19:08:00,70.9,50.8,29.87,ESE,112,0.0,-999.0,49,-99.99,,,0.00,Acu-Link.com,2013-05-06 23:08:00,
2013-05-06 19:23:00,70.3,51.3,29.87,SSE,157,0.0,-999.0,51,-99.99,,,0.00,Acu-Link.com,2013-05-06 23:23:00,
2013-05-06 19:38:00,68.9,51.6,29.87,West,270,0.0,-999.0,54,-99.99,,,0.00,Acu-Link.com,2013-05-06 23:38:00,
2013-05-06 19:54:00,67.5,51.2,29.88,East,90,2.7,-999.0,56,-99.99,,,0.00,Acu-Link.com,2013-05-06 23:54:00,
2013-05-06 20:09:00,66.6,52.7,29.88,East,90,0.0,-999.0,61,-99.99,,,0.00,Acu-Link.com,2013-05-07 00:09:00,
2013-05-06 20:24:00,64.8,51.9,29.88,ESE,112,0.0,-999.0,63,-99.99,,,0.00,Acu-Link.com,2013-05-07 00:24:00,
2013-05-06 20:39:00,63.7,51.7,29.89,ENE,67,0.0,-999.0,65,-99.99,,,0.00,Acu-Link.com,2013-05-07 00:39:00,
2013-05-06 20:54:00,63.3,51.7,29.90,ESE,112,0.0,-999.0,66,-99.99,,,0.00,Acu-Link.com,2013-05-07 00:54:00,
2013-05-06 21:09:00,63.9,51.9,29.91,SE,135,0.0,-999.0,65,-99.99,,,0.00,Acu-Link.com,2013-05-07 01:09:00,
2013-05-06 21:24:00,63.7,51.7,29.91,ESE,112,0.0,-999.0,65,-99.99,,,0.00,Acu-Link.com,2013-05-07 01:24:00,
2013-05-06 21:39:00,63.5,51.9,29.91,NE,45,0.0,-999.0,66,-99.99,,,0.00,Acu-Link.com,2013-05-07 01:39:00,
2013-05-06 21:54:00,63.0,51.9,29.92,SE,135,0.0,-999.0,67,-99.99,,,0.00,Acu-Link.com,2013-05-07 01:54:00,
2013-05-06 22:10:00,62.6,51.5,29.92,South,180,1.1,-999.0,67,-99.99,,,0.00,Acu-Link.com,2013-05-07 02:10:00,
2013-05-06 22:25:00,62.4,51.7,29.92,East,90,2.2,-999.0,68,-99.99,,,0.00,Acu-Link.com,2013-05-07 02:25:00,
2013-05-06 22:40:00,61.9,51.6,29.92,SSE,157,0.0,-999.0,69,-99.99,,,0.00,Acu-Link.com,2013-05-07 02:40:00,
2013-05-06 22:55:00,60.6,50.4,29.92,ESE,112,2.7,-999.0,69,-99.99,,,0.00,Acu-Link.com,2013-05-07 02:55:00,
2013-05-06 23:10:00,60.6,50.4,29.92,ESE,112,3.2,-999.0,69,-99.99,,,0.00,Acu-Link.com,2013-05-07 03:10:00,
2013-05-06 23:25:00,59.7,49.9,29.92,ESE,112,0.0,-999.0,70,-99.99,,,0.00,Acu-Link.com,2013-05-07 03:25:00,
2013-05-06 23:40:00,58.8,49.0,29.92,ENE,67,0.0,-999.0,70,-99.99,,,0.00,Acu-Link.com,2013-05-07 03:40:00,
2013-05-06 23:55:00,57.6,49.4,29.92,SE,135,0.0,-999.0,74,-99.99,,,0.00,Acu-Link.com,2013-05-07 03:55:00,